sensor_id;sensor_type;location;lat;lon;timestamp;temperature;humidity
51719;DHT22;37795;53.236;5.704;2023-06-22T00:00:55;17.70;76.60
51719;DHT22;37795;53.236;5.704;2023-06-22T00:03:22;17.70;76.40
51719;DHT22;37795;53.236;5.704;2023-06-22T00:05:49;17.60;76.50
51719;DHT22;37795;53.236;5.704;2023-06-22T00:08:15;17.50;76.40
51719;DHT22;37795;53.236;5.704;2023-06-22T00:10:41;17.40;76.20
51719;DHT22;37795;53.236;5.704;2023-06-22T00:13:08;17.40;77.20
51719;DHT22;37795;53.236;5.704;2023-06-22T00:15:35;17.40;77.60
51719;DHT22;37795;53.236;5.704;2023-06-22T00:18:01;17.50;78.10
51719;DHT22;37795;53.236;5.704;2023-06-22T00:20:28;17.30;78.40
51719;DHT22;37795;53.236;5.704;2023-06-22T00:22:55;17.30;79.60
51719;DHT22;37795;53.236;5.704;2023-06-22T00:25:21;17.30;80.50
51719;DHT22;37795;53.236;5.704;2023-06-22T00:27:47;17.50;80.50
51719;DHT22;37795;53.236;5.704;2023-06-22T00:30:13;17.60;80.40
51719;DHT22;37795;53.236;5.704;2023-06-22T00:32:39;17.50;80.20
51719;DHT22;37795;53.236;5.704;2023-06-22T00:35:05;17.40;80.40
51719;DHT22;37795;53.236;5.704;2023-06-22T00:37:31;17.40;81.10
51719;DHT22;37795;53.236;5.704;2023-06-22T00:39:56;17.40;81.20
51719;DHT22;37795;53.236;5.704;2023-06-22T00:42:23;17.40;81.80
51719;DHT22;37795;53.236;5.704;2023-06-22T00:44:48;17.40;81.90
51719;DHT22;37795;53.236;5.704;2023-06-22T00:47:16;17.60;81.90
51719;DHT22;37795;53.236;5.704;2023-06-22T00:49:43;17.70;81.50
51719;DHT22;37795;53.236;5.704;2023-06-22T00:52:09;17.70;81.10
51719;DHT22;37795;53.236;5.704;2023-06-22T00:54:42;17.80;80.80
51719;DHT22;37795;53.236;5.704;2023-06-22T00:57:13;17.80;80.50
51719;DHT22;37795;53.236;5.704;2023-06-22T00:59:43;17.80;80.40
51719;DHT22;37795;53.236;5.704;2023-06-22T01:02:09;17.80;80.30
51719;DHT22;37795;53.236;5.704;2023-06-22T01:04:36;17.90;80.40
51719;DHT22;37795;53.236;5.704;2023-06-22T01:12:30;17.90;80.30
51719;DHT22;37795;53.236;5.704;2023-06-22T01:15:08;17.90;80.20
51719;DHT22;37795;53.236;5.704;2023-06-22T01:17:35;17.90;80.40
51719;DHT22;37795;53.236;5.704;2023-06-22T01:20:02;17.90;80.30
51719;DHT22;37795;53.236;5.704;2023-06-22T01:22:39;17.80;80.10
51719;DHT22;37795;53.236;5.704;2023-06-22T01:25:13;17.70;79.90
51719;DHT22;37795;53.236;5.704;2023-06-22T01:30:43;17.70;79.80
51719;DHT22;37795;53.236;5.704;2023-06-22T01:33:11;17.70;80.00
51719;DHT22;37795;53.236;5.704;2023-06-22T01:35:39;17.70;79.90
51719;DHT22;37795;53.236;5.704;2023-06-22T01:38:06;17.50;80.00
51719;DHT22;37795;53.236;5.704;2023-06-22T01:40:34;17.40;80.60
51719;DHT22;37795;53.236;5.704;2023-06-22T01:43:01;17.10;81.40
51719;DHT22;37795;53.236;5.704;2023-06-22T01:45:28;17.20;82.10
51719;DHT22;37795;53.236;5.704;2023-06-22T01:47:54;17.20;82.30
51719;DHT22;37795;53.236;5.704;2023-06-22T01:50:20;17.30;82.10
51719;DHT22;37795;53.236;5.704;2023-06-22T01:52:46;17.30;82.20
51719;DHT22;37795;53.236;5.704;2023-06-22T01:55:12;17.20;81.90
51719;DHT22;37795;53.236;5.704;2023-06-22T01:57:38;17.20;82.50
51719;DHT22;37795;53.236;5.704;2023-06-22T02:00:09;17.20;82.40
51719;DHT22;37795;53.236;5.704;2023-06-22T02:02:46;17.10;82.50
51719;DHT22;37795;53.236;5.704;2023-06-22T02:05:17;17.10;82.90
51719;DHT22;37795;53.236;5.704;2023-06-22T02:08:02;17.20;83.20
51719;DHT22;37795;53.236;5.704;2023-06-22T02:10:31;17.30;83.00
51719;DHT22;37795;53.236;5.704;2023-06-22T02:12:57;17.30;82.70
51719;DHT22;37795;53.236;5.704;2023-06-22T02:15:23;17.30;82.80
51719;DHT22;37795;53.236;5.704;2023-06-22T02:17:50;17.40;82.60
51719;DHT22;37795;53.236;5.704;2023-06-22T02:20:16;17.50;82.50
51719;DHT22;37795;53.236;5.704;2023-06-22T02:22:42;17.30;81.80
51719;DHT22;37795;53.236;5.704;2023-06-22T02:25:07;17.40;82.40
51719;DHT22;37795;53.236;5.704;2023-06-22T02:27:33;17.50;82.60
51719;DHT22;37795;53.236;5.704;2023-06-22T02:29:59;17.50;82.30
51719;DHT22;37795;53.236;5.704;2023-06-22T02:32:25;17.30;81.30
51719;DHT22;37795;53.236;5.704;2023-06-22T02:34:50;17.20;82.10
51719;DHT22;37795;53.236;5.704;2023-06-22T02:37:17;17.30;82.50
51719;DHT22;37795;53.236;5.704;2023-06-22T02:39:43;17.40;82.60
51719;DHT22;37795;53.236;5.704;2023-06-22T02:42:09;17.50;82.40
51719;DHT22;37795;53.236;5.704;2023-06-22T02:44:36;17.50;82.10
51719;DHT22;37795;53.236;5.704;2023-06-22T02:47:02;17.50;81.70
51719;DHT22;37795;53.236;5.704;2023-06-22T02:49:28;17.60;81.80
51719;DHT22;37795;53.236;5.704;2023-06-22T02:51:54;17.60;81.20
51719;DHT22;37795;53.236;5.704;2023-06-22T02:54:20;17.50;81.10
51719;DHT22;37795;53.236;5.704;2023-06-22T02:56:46;17.40;81.30
51719;DHT22;37795;53.236;5.704;2023-06-22T02:59:13;17.30;81.10
51719;DHT22;37795;53.236;5.704;2023-06-22T03:01:39;17.30;81.70
51719;DHT22;37795;53.236;5.704;2023-06-22T03:04:08;17.30;81.80
51719;DHT22;37795;53.236;5.704;2023-06-22T03:06:34;17.30;81.70
51719;DHT22;37795;53.236;5.704;2023-06-22T03:09:04;17.20;81.70
51719;DHT22;37795;53.236;5.704;2023-06-22T03:11:34;17.30;82.20
51719;DHT22;37795;53.236;5.704;2023-06-22T03:14:02;17.30;82.20
51719;DHT22;37795;53.236;5.704;2023-06-22T03:16:28;17.20;81.70
51719;DHT22;37795;53.236;5.704;2023-06-22T03:18:54;17.20;82.20
51719;DHT22;37795;53.236;5.704;2023-06-22T03:21:22;17.20;82.20
51719;DHT22;37795;53.236;5.704;2023-06-22T03:23:48;17.20;82.40
51719;DHT22;37795;53.236;5.704;2023-06-22T03:26:18;17.30;82.40
51719;DHT22;37795;53.236;5.704;2023-06-22T03:28:43;17.20;82.40
51719;DHT22;37795;53.236;5.704;2023-06-22T03:31:09;17.20;82.30
51719;DHT22;37795;53.236;5.704;2023-06-22T03:33:35;17.20;82.40
51719;DHT22;37795;53.236;5.704;2023-06-22T03:36:00;17.20;82.40
51719;DHT22;37795;53.236;5.704;2023-06-22T03:38:26;17.30;82.20
51719;DHT22;37795;53.236;5.704;2023-06-22T03:40:52;17.30;82.00
51719;DHT22;37795;53.236;5.704;2023-06-22T03:43:18;17.30;82.00
51719;DHT22;37795;53.236;5.704;2023-06-22T03:45:43;17.30;81.70
51719;DHT22;37795;53.236;5.704;2023-06-22T03:48:11;17.10;81.10
51719;DHT22;37795;53.236;5.704;2023-06-22T03:50:37;17.00;81.80
51719;DHT22;37795;53.236;5.704;2023-06-22T03:53:03;17.10;82.00
51719;DHT22;37795;53.236;5.704;2023-06-22T03:55:29;17.20;81.90
51719;DHT22;37795;53.236;5.704;2023-06-22T03:57:54;17.10;81.80
51719;DHT22;37795;53.236;5.704;2023-06-22T04:00:23;17.10;81.70
51719;DHT22;37795;53.236;5.704;2023-06-22T04:02:49;17.10;81.30
51719;DHT22;37795;53.236;5.704;2023-06-22T04:05:15;16.90;81.40
51719;DHT22;37795;53.236;5.704;2023-06-22T04:07:43;16.90;82.10
51719;DHT22;37795;53.236;5.704;2023-06-22T04:10:09;17.00;82.20
51719;DHT22;37795;53.236;5.704;2023-06-22T04:12:35;16.90;81.50
51719;DHT22;37795;53.236;5.704;2023-06-22T04:15:01;17.00;81.30
51719;DHT22;37795;53.236;5.704;2023-06-22T04:17:27;17.00;81.50
51719;DHT22;37795;53.236;5.704;2023-06-22T04:19:53;17.10;81.30
51719;DHT22;37795;53.236;5.704;2023-06-22T04:22:18;17.20;81.20
51719;DHT22;37795;53.236;5.704;2023-06-22T04:24:44;17.20;81.10
51719;DHT22;37795;53.236;5.704;2023-06-22T04:27:10;17.30;80.90
51719;DHT22;37795;53.236;5.704;2023-06-22T04:29:37;17.40;80.80
51719;DHT22;37795;53.236;5.704;2023-06-22T04:32:04;17.30;80.30
51719;DHT22;37795;53.236;5.704;2023-06-22T04:34:30;17.20;80.60
51719;DHT22;37795;53.236;5.704;2023-06-22T04:36:57;17.30;80.70
51719;DHT22;37795;53.236;5.704;2023-06-22T04:39:22;17.30;80.70
51719;DHT22;37795;53.236;5.704;2023-06-22T04:41:49;17.30;80.70
51719;DHT22;37795;53.236;5.704;2023-06-22T04:44:19;17.30;81.00
51719;DHT22;37795;53.236;5.704;2023-06-22T04:46:50;17.30;80.80
51719;DHT22;37795;53.236;5.704;2023-06-22T04:49:22;17.20;80.30
51719;DHT22;37795;53.236;5.704;2023-06-22T04:51:48;16.90;80.70
51719;DHT22;37795;53.236;5.704;2023-06-22T04:54:17;17.10;81.90
51719;DHT22;37795;53.236;5.704;2023-06-22T04:56:42;17.30;82.00
51719;DHT22;37795;53.236;5.704;2023-06-22T04:59:08;17.40;81.90
51719;DHT22;37795;53.236;5.704;2023-06-22T05:01:38;17.40;81.40
51719;DHT22;37795;53.236;5.704;2023-06-22T05:04:04;17.50;81.80
51719;DHT22;37795;53.236;5.704;2023-06-22T05:06:32;17.60;81.60
51719;DHT22;37795;53.236;5.704;2023-06-22T05:08:57;17.60;81.30
51719;DHT22;37795;53.236;5.704;2023-06-22T05:11:26;17.50;80.90
51719;DHT22;37795;53.236;5.704;2023-06-22T05:13:53;17.70;81.20
51719;DHT22;37795;53.236;5.704;2023-06-22T05:16:20;17.80;81.00
51719;DHT22;37795;53.236;5.704;2023-06-22T05:18:53;17.90;80.80
51719;DHT22;37795;53.236;5.704;2023-06-22T05:21:24;18.00;80.50
51719;DHT22;37795;53.236;5.704;2023-06-22T05:23:51;18.20;80.30
51719;DHT22;37795;53.236;5.704;2023-06-22T05:26:17;18.30;80.10
51719;DHT22;37795;53.236;5.704;2023-06-22T05:28:43;18.30;79.60
51719;DHT22;37795;53.236;5.704;2023-06-22T05:31:16;18.30;80.20
51719;DHT22;37795;53.236;5.704;2023-06-22T05:33:43;18.30;80.30
51719;DHT22;37795;53.236;5.704;2023-06-22T05:36:09;18.30;80.00
51719;DHT22;37795;53.236;5.704;2023-06-22T05:38:35;18.30;80.20
51719;DHT22;37795;53.236;5.704;2023-06-22T05:41:01;18.40;80.70
51719;DHT22;37795;53.236;5.704;2023-06-22T05:43:28;18.40;80.60
51719;DHT22;37795;53.236;5.704;2023-06-22T05:45:53;18.30;80.80
51719;DHT22;37795;53.236;5.704;2023-06-22T05:48:19;18.50;81.60
51719;DHT22;37795;53.236;5.704;2023-06-22T05:50:45;18.50;81.40
51719;DHT22;37795;53.236;5.704;2023-06-22T05:53:11;18.50;81.10
51719;DHT22;37795;53.236;5.704;2023-06-22T05:55:36;18.50;81.20
51719;DHT22;37795;53.236;5.704;2023-06-22T05:58:02;18.70;81.00
51719;DHT22;37795;53.236;5.704;2023-06-22T06:00:31;18.90;80.20
51719;DHT22;37795;53.236;5.704;2023-06-22T06:02:56;18.90;79.70
51719;DHT22;37795;53.236;5.704;2023-06-22T06:05:22;19.20;79.40
51719;DHT22;37795;53.236;5.704;2023-06-22T06:07:49;19.30;78.50
51719;DHT22;37795;53.236;5.704;2023-06-22T06:10:15;19.20;77.90
51719;DHT22;37795;53.236;5.704;2023-06-22T06:12:40;19.30;78.40
51719;DHT22;37795;53.236;5.704;2023-06-22T06:15:06;19.40;77.80
51719;DHT22;37795;53.236;5.704;2023-06-22T06:17:32;19.40;77.20
51719;DHT22;37795;53.236;5.704;2023-06-22T06:20:01;19.50;77.30
51719;DHT22;37795;53.236;5.704;2023-06-22T06:22:27;19.70;76.60
51719;DHT22;37795;53.236;5.704;2023-06-22T06:24:53;19.60;76.60
51719;DHT22;37795;53.236;5.704;2023-06-22T06:27:18;19.50;76.40
51719;DHT22;37795;53.236;5.704;2023-06-22T06:29:44;19.70;76.70
51719;DHT22;37795;53.236;5.704;2023-06-22T06:32:14;19.80;76.70
51719;DHT22;37795;53.236;5.704;2023-06-22T06:34:40;19.90;76.20
51719;DHT22;37795;53.236;5.704;2023-06-22T06:37:06;20.00;75.80
51719;DHT22;37795;53.236;5.704;2023-06-22T06:39:31;20.00;75.40
51719;DHT22;37795;53.236;5.704;2023-06-22T06:41:57;20.10;75.60
51719;DHT22;37795;53.236;5.704;2023-06-22T06:44:23;20.30;75.80
51719;DHT22;37795;53.236;5.704;2023-06-22T06:46:48;20.30;75.10
51719;DHT22;37795;53.236;5.704;2023-06-22T06:55:38;21.20;72.50
51719;DHT22;37795;53.236;5.704;2023-06-22T06:58:04;21.00;73.00
51719;DHT22;37795;53.236;5.704;2023-06-22T07:00:33;21.10;71.70
51719;DHT22;37795;53.236;5.704;2023-06-22T07:02:58;21.00;71.30
51719;DHT22;37795;53.236;5.704;2023-06-22T07:05:24;21.50;70.40
51719;DHT22;37795;53.236;5.704;2023-06-22T07:07:50;21.20;71.10
51719;DHT22;37795;53.236;5.704;2023-06-22T07:10:15;21.30;70.70
51719;DHT22;37795;53.236;5.704;2023-06-22T07:12:41;21.40;69.70
51719;DHT22;37795;53.236;5.704;2023-06-22T07:15:08;21.50;69.00
51719;DHT22;37795;53.236;5.704;2023-06-22T07:17:34;21.60;69.30
51719;DHT22;37795;53.236;5.704;2023-06-22T07:20:01;21.60;69.90
51719;DHT22;37795;53.236;5.704;2023-06-22T07:22:27;21.60;69.90
51719;DHT22;37795;53.236;5.704;2023-06-22T07:24:53;21.70;70.00
51719;DHT22;37795;53.236;5.704;2023-06-22T07:27:18;21.80;69.20
51719;DHT22;37795;53.236;5.704;2023-06-22T07:29:45;21.80;69.10
51719;DHT22;37795;53.236;5.704;2023-06-22T07:32:11;21.90;69.70
51719;DHT22;37795;53.236;5.704;2023-06-22T07:34:37;22.10;69.80
51719;DHT22;37795;53.236;5.704;2023-06-22T07:37:02;22.10;68.90
51719;DHT22;37795;53.236;5.704;2023-06-22T07:39:30;22.20;69.30
51719;DHT22;37795;53.236;5.704;2023-06-22T07:41:55;22.20;68.70
51719;DHT22;37795;53.236;5.704;2023-06-22T07:44:21;22.40;68.00
51719;DHT22;37795;53.236;5.704;2023-06-22T07:46:47;22.40;66.80
51719;DHT22;37795;53.236;5.704;2023-06-22T07:49:13;22.50;66.70
51719;DHT22;37795;53.236;5.704;2023-06-22T07:51:38;22.60;67.60
51719;DHT22;37795;53.236;5.704;2023-06-22T07:54:04;22.80;67.10
51719;DHT22;37795;53.236;5.704;2023-06-22T07:56:30;22.80;66.10
51719;DHT22;37795;53.236;5.704;2023-06-22T07:58:56;23.00;66.40
51719;DHT22;37795;53.236;5.704;2023-06-22T08:01:23;23.00;65.50
51719;DHT22;37795;53.236;5.704;2023-06-22T08:03:49;23.00;65.70
51719;DHT22;37795;53.236;5.704;2023-06-22T08:06:15;23.10;64.60
51719;DHT22;37795;53.236;5.704;2023-06-22T08:08:42;23.10;64.90
51719;DHT22;37795;53.236;5.704;2023-06-22T08:11:08;23.20;64.90
51719;DHT22;37795;53.236;5.704;2023-06-22T08:13:34;23.10;64.60
51719;DHT22;37795;53.236;5.704;2023-06-22T08:16:00;23.20;64.60
51719;DHT22;37795;53.236;5.704;2023-06-22T08:18:26;23.30;63.60
51719;DHT22;37795;53.236;5.704;2023-06-22T08:20:52;23.30;63.60
51719;DHT22;37795;53.236;5.704;2023-06-22T08:23:18;23.40;63.20
51719;DHT22;37795;53.236;5.704;2023-06-22T08:25:43;23.50;62.70
51719;DHT22;37795;53.236;5.704;2023-06-22T08:28:09;23.50;63.20
51719;DHT22;37795;53.236;5.704;2023-06-22T08:30:35;23.60;63.50
51719;DHT22;37795;53.236;5.704;2023-06-22T08:33:01;23.60;62.80
51719;DHT22;37795;53.236;5.704;2023-06-22T08:35:26;23.60;62.70
51719;DHT22;37795;53.236;5.704;2023-06-22T08:37:52;23.50;63.30
51719;DHT22;37795;53.236;5.704;2023-06-22T08:40:20;23.80;63.20
51719;DHT22;37795;53.236;5.704;2023-06-22T08:42:45;23.90;62.50
51719;DHT22;37795;53.236;5.704;2023-06-22T08:45:11;23.60;63.00
51719;DHT22;37795;53.236;5.704;2023-06-22T08:47:37;23.60;62.00
51719;DHT22;37795;53.236;5.704;2023-06-22T08:50:03;23.80;62.10
51719;DHT22;37795;53.236;5.704;2023-06-22T08:52:29;23.50;61.80
51719;DHT22;37795;53.236;5.704;2023-06-22T08:54:54;23.70;62.80
51719;DHT22;37795;53.236;5.704;2023-06-22T08:57:20;23.90;61.40
51719;DHT22;37795;53.236;5.704;2023-06-22T08:59:46;23.80;61.90
51719;DHT22;37795;53.236;5.704;2023-06-22T09:02:12;24.10;61.00
51719;DHT22;37795;53.236;5.704;2023-06-22T09:04:37;24.10;61.60
51719;DHT22;37795;53.236;5.704;2023-06-22T09:07:03;24.30;61.00
51719;DHT22;37795;53.236;5.704;2023-06-22T09:09:28;24.30;59.90
51719;DHT22;37795;53.236;5.704;2023-06-22T09:11:54;24.40;59.30
51719;DHT22;37795;53.236;5.704;2023-06-22T09:14:20;24.50;59.20
51719;DHT22;37795;53.236;5.704;2023-06-22T09:16:45;24.50;59.10
51719;DHT22;37795;53.236;5.704;2023-06-22T09:19:11;24.50;59.20
51719;DHT22;37795;53.236;5.704;2023-06-22T09:21:36;24.60;57.90
51719;DHT22;37795;53.236;5.704;2023-06-22T09:24:02;24.80;58.20
51719;DHT22;37795;53.236;5.704;2023-06-22T09:26:28;24.80;59.50
51719;DHT22;37795;53.236;5.704;2023-06-22T09:28:53;24.90;58.60
51719;DHT22;37795;53.236;5.704;2023-06-22T09:31:19;24.90;58.10
51719;DHT22;37795;53.236;5.704;2023-06-22T09:33:53;25.20;59.90
51719;DHT22;37795;53.236;5.704;2023-06-22T09:36:22;25.60;58.80
51719;DHT22;37795;53.236;5.704;2023-06-22T09:38:48;25.30;57.80
51719;DHT22;37795;53.236;5.704;2023-06-22T09:41:13;25.20;57.00
51719;DHT22;37795;53.236;5.704;2023-06-22T09:43:39;24.90;58.00
51719;DHT22;37795;53.236;5.704;2023-06-22T09:46:05;25.20;57.80
51719;DHT22;37795;53.236;5.704;2023-06-22T09:48:32;25.30;56.80
51719;DHT22;37795;53.236;5.704;2023-06-22T09:50:57;25.50;56.40
51719;DHT22;37795;53.236;5.704;2023-06-22T09:53:23;26.00;57.10
51719;DHT22;37795;53.236;5.704;2023-06-22T09:55:49;25.60;54.90
51719;DHT22;37795;53.236;5.704;2023-06-22T09:58:14;25.70;55.60
51719;DHT22;37795;53.236;5.704;2023-06-22T10:00:40;25.90;54.30
51719;DHT22;37795;53.236;5.704;2023-06-22T10:03:07;25.80;54.00
51719;DHT22;37795;53.236;5.704;2023-06-22T10:05:32;25.80;54.30
51719;DHT22;37795;53.236;5.704;2023-06-22T10:07:58;26.20;54.10
51719;DHT22;37795;53.236;5.704;2023-06-22T10:10:23;26.20;52.90
51719;DHT22;37795;53.236;5.704;2023-06-22T10:12:56;26.10;54.20
51719;DHT22;37795;53.236;5.704;2023-06-22T10:15:22;26.20;53.70
51719;DHT22;37795;53.236;5.704;2023-06-22T10:17:48;26.30;53.80
51719;DHT22;37795;53.236;5.704;2023-06-22T10:20:14;26.20;54.10
51719;DHT22;37795;53.236;5.704;2023-06-22T10:22:40;26.20;54.80
51719;DHT22;37795;53.236;5.704;2023-06-22T10:25:06;26.20;54.90
51719;DHT22;37795;53.236;5.704;2023-06-22T10:27:32;26.20;54.50
51719;DHT22;37795;53.236;5.704;2023-06-22T10:29:58;25.90;54.00
51719;DHT22;37795;53.236;5.704;2023-06-22T10:32:23;25.90;54.90
51719;DHT22;37795;53.236;5.704;2023-06-22T10:34:49;25.90;54.60
51719;DHT22;37795;53.236;5.704;2023-06-22T10:37:14;26.10;54.80
51719;DHT22;37795;53.236;5.704;2023-06-22T10:39:40;26.40;52.90
51719;DHT22;37795;53.236;5.704;2023-06-22T10:42:05;26.70;52.70
51719;DHT22;37795;53.236;5.704;2023-06-22T10:44:31;27.00;52.90
51719;DHT22;37795;53.236;5.704;2023-06-22T10:46:57;27.10;51.30
51719;DHT22;37795;53.236;5.704;2023-06-22T10:55:38;27.00;52.10
51719;DHT22;37795;53.236;5.704;2023-06-22T10:58:03;26.70;51.70
51719;DHT22;37795;53.236;5.704;2023-06-22T11:00:29;27.10;52.00
51719;DHT22;37795;53.236;5.704;2023-06-22T11:02:55;27.20;52.30
51719;DHT22;37795;53.236;5.704;2023-06-22T11:05:20;26.90;52.80
51719;DHT22;37795;53.236;5.704;2023-06-22T11:07:46;26.80;52.00
51719;DHT22;37795;53.236;5.704;2023-06-22T11:10:14;26.60;52.20
51719;DHT22;37795;53.236;5.704;2023-06-22T11:12:40;26.90;51.80
51719;DHT22;37795;53.236;5.704;2023-06-22T11:15:06;26.90;53.40
51719;DHT22;37795;53.236;5.704;2023-06-22T11:17:32;27.00;52.60
51719;DHT22;37795;53.236;5.704;2023-06-22T11:19:57;26.70;51.40
51719;DHT22;37795;53.236;5.704;2023-06-22T11:22:25;26.50;51.00
51719;DHT22;37795;53.236;5.704;2023-06-22T11:24:51;26.80;52.00
51719;DHT22;37795;53.236;5.704;2023-06-22T11:27:17;26.70;52.40
51719;DHT22;37795;53.236;5.704;2023-06-22T11:29:42;26.80;51.00
51719;DHT22;37795;53.236;5.704;2023-06-22T11:32:08;26.90;51.50
51719;DHT22;37795;53.236;5.704;2023-06-22T11:34:34;26.60;50.30
51719;DHT22;37795;53.236;5.704;2023-06-22T11:37:00;26.40;52.00
51719;DHT22;37795;53.236;5.704;2023-06-22T11:39:26;26.20;51.90
51719;DHT22;37795;53.236;5.704;2023-06-22T11:41:51;26.10;52.10
51719;DHT22;37795;53.236;5.704;2023-06-22T11:44:18;26.40;51.50
51719;DHT22;37795;53.236;5.704;2023-06-22T11:46:43;26.70;51.20
51719;DHT22;37795;53.236;5.704;2023-06-22T11:49:09;26.50;51.50
51719;DHT22;37795;53.236;5.704;2023-06-22T11:51:35;26.90;50.80
51719;DHT22;37795;53.236;5.704;2023-06-22T11:54:00;26.80;50.60
51719;DHT22;37795;53.236;5.704;2023-06-22T11:56:27;27.10;50.90
51719;DHT22;37795;53.236;5.704;2023-06-22T11:58:53;27.00;50.70
51719;DHT22;37795;53.236;5.704;2023-06-22T12:01:19;26.80;49.30
51719;DHT22;37795;53.236;5.704;2023-06-22T12:03:46;26.70;50.60
51719;DHT22;37795;53.236;5.704;2023-06-22T12:06:12;26.90;50.40
51719;DHT22;37795;53.236;5.704;2023-06-22T12:08:37;27.30;48.90
51719;DHT22;37795;53.236;5.704;2023-06-22T12:11:03;26.80;48.40
51719;DHT22;37795;53.236;5.704;2023-06-22T12:13:29;27.20;50.30
51719;DHT22;37795;53.236;5.704;2023-06-22T12:15:54;26.90;49.10
51719;DHT22;37795;53.236;5.704;2023-06-22T12:18:20;27.10;49.90
51719;DHT22;37795;53.236;5.704;2023-06-22T12:20:47;27.70;49.40
51719;DHT22;37795;53.236;5.704;2023-06-22T12:23:12;27.60;48.20
51719;DHT22;37795;53.236;5.704;2023-06-22T12:25:39;27.20;48.10
51719;DHT22;37795;53.236;5.704;2023-06-22T12:28:04;27.20;48.70
51719;DHT22;37795;53.236;5.704;2023-06-22T12:30:32;27.50;49.00
51719;DHT22;37795;53.236;5.704;2023-06-22T12:32:58;27.80;48.90
51719;DHT22;37795;53.236;5.704;2023-06-22T12:35:24;27.30;47.40
51719;DHT22;37795;53.236;5.704;2023-06-22T12:37:49;27.30;48.50
51719;DHT22;37795;53.236;5.704;2023-06-22T12:40:15;27.00;48.20
51719;DHT22;37795;53.236;5.704;2023-06-22T12:42:41;27.00;48.70
51719;DHT22;37795;53.236;5.704;2023-06-22T12:45:08;27.00;47.20
51719;DHT22;37795;53.236;5.704;2023-06-22T12:47:34;26.80;47.30
51719;DHT22;37795;53.236;5.704;2023-06-22T12:49:59;26.90;49.00
51719;DHT22;37795;53.236;5.704;2023-06-22T12:52:25;26.80;47.50
51719;DHT22;37795;53.236;5.704;2023-06-22T12:54:51;26.50;47.10
51719;DHT22;37795;53.236;5.704;2023-06-22T12:57:17;26.70;48.20
51719;DHT22;37795;53.236;5.704;2023-06-22T12:59:45;26.30;47.40
51719;DHT22;37795;53.236;5.704;2023-06-22T13:02:10;26.00;48.20
51719;DHT22;37795;53.236;5.704;2023-06-22T13:04:36;25.70;49.20
51719;DHT22;37795;53.236;5.704;2023-06-22T13:07:02;26.30;49.10
51719;DHT22;37795;53.236;5.704;2023-06-22T13:09:28;25.50;48.90
51719;DHT22;37795;53.236;5.704;2023-06-22T13:11:53;25.40;50.80
51719;DHT22;37795;53.236;5.704;2023-06-22T13:14:19;25.40;50.70
51719;DHT22;37795;53.236;5.704;2023-06-22T13:16:45;25.00;51.10
51719;DHT22;37795;53.236;5.704;2023-06-22T13:19:10;24.80;51.80
51719;DHT22;37795;53.236;5.704;2023-06-22T13:21:36;24.90;52.00
51719;DHT22;37795;53.236;5.704;2023-06-22T13:24:02;24.80;52.10
51719;DHT22;37795;53.236;5.704;2023-06-22T13:26:28;24.90;51.40
51719;DHT22;37795;53.236;5.704;2023-06-22T13:28:54;25.00;52.30
51719;DHT22;37795;53.236;5.704;2023-06-22T13:31:20;24.70;51.70
51719;DHT22;37795;53.236;5.704;2023-06-22T13:33:45;24.20;52.30
51719;DHT22;37795;53.236;5.704;2023-06-22T13:36:13;24.50;53.10
51719;DHT22;37795;53.236;5.704;2023-06-22T13:38:39;24.30;51.10
51719;DHT22;37795;53.236;5.704;2023-06-22T13:41:05;24.10;52.00
51719;DHT22;37795;53.236;5.704;2023-06-22T13:43:31;24.10;51.90
51719;DHT22;37795;53.236;5.704;2023-06-22T13:45:57;24.20;50.90
51719;DHT22;37795;53.236;5.704;2023-06-22T13:48:23;24.30;51.30
51719;DHT22;37795;53.236;5.704;2023-06-22T13:50:51;23.90;51.10
51719;DHT22;37795;53.236;5.704;2023-06-22T13:53:17;24.00;52.10
51719;DHT22;37795;53.236;5.704;2023-06-22T13:55:43;24.00;50.60
51719;DHT22;37795;53.236;5.704;2023-06-22T13:58:09;23.80;51.10
51719;DHT22;37795;53.236;5.704;2023-06-22T14:00:34;23.90;51.20
51719;DHT22;37795;53.236;5.704;2023-06-22T14:03:00;23.70;51.00
51719;DHT22;37795;53.236;5.704;2023-06-22T14:05:26;23.60;50.70
51719;DHT22;37795;53.236;5.704;2023-06-22T14:07:51;23.80;50.10
51719;DHT22;37795;53.236;5.704;2023-06-22T14:10:17;23.70;50.90
51719;DHT22;37795;53.236;5.704;2023-06-22T14:12:43;23.60;51.20
51719;DHT22;37795;53.236;5.704;2023-06-22T14:15:10;23.50;50.40
51719;DHT22;37795;53.236;5.704;2023-06-22T14:17:35;23.20;51.50
51719;DHT22;37795;53.236;5.704;2023-06-22T14:20:01;23.10;51.90
51719;DHT22;37795;53.236;5.704;2023-06-22T14:22:28;23.50;51.10
51719;DHT22;37795;53.236;5.704;2023-06-22T14:24:55;23.30;51.50
51719;DHT22;37795;53.236;5.704;2023-06-22T14:27:23;23.20;51.70
51719;DHT22;37795;53.236;5.704;2023-06-22T14:29:48;23.00;51.60
51719;DHT22;37795;53.236;5.704;2023-06-22T14:32:14;22.90;51.60
51719;DHT22;37795;53.236;5.704;2023-06-22T14:34:40;22.60;53.40
51719;DHT22;37795;53.236;5.704;2023-06-22T14:37:07;22.80;53.20
51719;DHT22;37795;53.236;5.704;2023-06-22T14:39:34;22.50;53.40
51719;DHT22;37795;53.236;5.704;2023-06-22T14:42:00;22.70;54.00
51719;DHT22;37795;53.236;5.704;2023-06-22T14:44:26;22.70;53.10
51719;DHT22;37795;53.236;5.704;2023-06-22T14:46:54;22.60;53.10
51719;DHT22;37795;53.236;5.704;2023-06-22T14:49:20;22.80;52.60
51719;DHT22;37795;53.236;5.704;2023-06-22T14:51:46;22.60;52.90
51719;DHT22;37795;53.236;5.704;2023-06-22T14:54:12;22.50;54.40
51719;DHT22;37795;53.236;5.704;2023-06-22T14:56:37;22.30;53.90
51719;DHT22;37795;53.236;5.704;2023-06-22T14:59:03;22.20;53.90
51719;DHT22;37795;53.236;5.704;2023-06-22T15:01:29;22.20;54.40
51719;DHT22;37795;53.236;5.704;2023-06-22T15:03:55;22.30;54.90
51719;DHT22;37795;53.236;5.704;2023-06-22T15:06:21;22.30;54.80
51719;DHT22;37795;53.236;5.704;2023-06-22T15:08:47;22.10;54.10
51719;DHT22;37795;53.236;5.704;2023-06-22T15:11:12;22.10;55.30
51719;DHT22;37795;53.236;5.704;2023-06-22T15:13:41;22.10;54.80
51719;DHT22;37795;53.236;5.704;2023-06-22T15:16:08;22.10;54.10
51719;DHT22;37795;53.236;5.704;2023-06-22T15:18:35;22.20;53.90
51719;DHT22;37795;53.236;5.704;2023-06-22T15:21:01;22.30;54.40
51719;DHT22;37795;53.236;5.704;2023-06-22T15:23:31;22.10;54.80
51719;DHT22;37795;53.236;5.704;2023-06-22T15:25:58;22.10;54.80
51719;DHT22;37795;53.236;5.704;2023-06-22T15:28:24;22.20;55.50
51719;DHT22;37795;53.236;5.704;2023-06-22T15:30:50;22.50;56.10
51719;DHT22;37795;53.236;5.704;2023-06-22T15:33:17;22.30;54.90
51719;DHT22;37795;53.236;5.704;2023-06-22T15:35:43;22.40;54.80
51719;DHT22;37795;53.236;5.704;2023-06-22T15:38:09;22.20;55.20
51719;DHT22;37795;53.236;5.704;2023-06-22T15:40:35;22.20;56.00
51719;DHT22;37795;53.236;5.704;2023-06-22T15:43:01;22.20;55.60
51719;DHT22;37795;53.236;5.704;2023-06-22T15:45:26;22.30;55.90